Time;durP1;ratioP1;P1;durP2;ratioP2;P2;SDS_P1;SDS_P2;PMS_P1;PMS_P2;Temp;Humidity;BMP_temperature;BMP_pressure;BME280_temperature;BME280_humidity;BME280_pressure;Samples;Min_cycle;Max_cycle;Signal;HPM_P1;HPM_P2
2022/07/03 00:01:56;;;;;;;3.17;1.08;;;17.90;99.90;;;;;;5059688;28;20072;-86
2022/07/03 00:04:28;;;;;;;2.53;1.20;;;17.80;99.90;;;;;;5067255;28;20052;-86
2022/07/03 00:06:55;;;;;;;3.10;1.10;;;17.80;99.90;;;;;;5064315;28;20131;-86
2022/07/03 00:09:24;;;;;;;2.10;1.10;;;17.70;99.90;;;;;;5061890;28;20054;-85
2022/07/03 00:11:55;;;;;;;3.72;1.40;;;17.20;99.90;;;;;;5061755;28;20074;-86
2022/07/03 00:14:20;;;;;;;2.25;1.30;;;17.50;99.90;;;;;;5077771;28;20509;-85
2022/07/03 00:16:47;;;;;;;2.97;1.30;;;17.40;99.90;;;;;;5060349;28;20041;-85
2022/07/03 00:19:13;;;;;;;1.98;1.10;;;17.40;99.90;;;;;;5065112;28;20076;-85
2022/07/03 00:21:46;;;;;;;4.00;1.38;;;17.30;99.90;;;;;;5066982;28;20079;-86
2022/07/03 00:24:18;;;;;;;3.45;1.40;;;17.30;99.90;;;;;;5066084;28;20047;-84
2022/07/03 00:26:48;;;;;;;3.30;1.58;;;16.80;99.90;;;;;;5067495;28;20044;-85
2022/07/03 00:29:17;;;;;;;3.45;1.30;;;17.30;99.90;;;;;;5067542;28;20495;-84
2022/07/03 00:31:46;;;;;;;2.55;1.00;;;17.20;99.90;;;;;;5059995;28;20047;-85
2022/07/03 00:34:15;;;;;;;2.03;1.48;;;17.20;99.90;;;;;;5067335;28;20040;-86
2022/07/03 00:36:50;;;;;;;4.72;1.88;;;17.20;99.90;;;;;;5067696;28;20123;-86
2022/07/03 00:39:21;;;;;;;4.40;2.17;;;17.20;99.90;;;;;;5081238;28;20101;-86
2022/07/03 00:41:58;;;;;;;4.15;1.50;;;17.10;99.90;;;;;;5061076;28;20063;-86
2022/07/03 00:44:27;;;;;;;3.88;1.65;;;17.00;99.90;;;;;;5069367;28;20513;-85
2022/07/03 00:46:55;;;;;;;2.60;1.75;;;17.00;99.90;;;;;;5067896;28;20040;-85
2022/07/03 00:49:27;;;;;;;3.25;1.75;;;17.00;99.90;;;;;;5076607;28;20051;-85
2022/07/03 00:51:56;;;;;;;4.07;1.95;;;17.10;99.90;;;;;;5062422;28;20284;-84
2022/07/03 00:54:25;;;;;;;3.60;1.63;;;17.00;99.90;;;;;;5051547;28;20065;-85
2022/07/03 00:57:00;;;;;;;3.67;2.10;;;17.00;99.90;;;;;;5068723;28;20047;-85
2022/07/03 00:59:26;;;;;;;2.90;1.40;;;17.00;99.90;;;;;;5065035;28;20039;-85
2022/07/03 01:02:00;;;;;;;2.50;1.83;;;17.00;99.90;;;;;;5063323;28;20098;-85
2022/07/03 01:04:45;;;;;;;2.53;1.60;;;17.00;99.90;;;;;;5063904;28;20094;-85
2022/07/03 01:07:37;;;;;;;2.90;1.60;;;17.10;99.90;;;;;;5065865;28;20048;-86
2022/07/03 01:10:33;;;;;;;3.42;1.75;;;16.70;99.90;;;;;;5076620;28;20055;-85
2022/07/03 01:13:14;;;;;;;;;;;17.10;99.90;;;;;;5065419;28;20052;-85
2022/07/03 01:16:07;;;;;;;6.45;1.75;;;17.10;99.90;;;;;;5067704;28;20341;-84
2022/07/03 01:18:42;;;;;;;3.30;1.92;;;17.10;99.90;;;;;;5072553;28;20091;-84
2022/07/03 01:21:54;;;;;;;3.05;2.20;;;17.10;99.90;;;;;;5079407;28;20126;-84
2022/07/03 01:24:44;;;;;;;3.45;1.92;;;17.10;99.90;;;;;;4991081;28;20038;-85
2022/07/03 01:27:41;;;;;;;3.65;1.98;;;17.10;99.90;;;;;;4993710;28;20041;-85
2022/07/03 01:30:12;;;;;;;4.88;2.28;;;17.10;99.90;;;;;;5060451;28;20159;-84
2022/07/03 01:32:42;;;;;;;3.42;1.90;;;17.10;99.90;;;;;;5061255;28;20127;-85
2022/07/03 01:35:13;;;;;;;4.35;1.77;;;17.10;99.90;;;;;;5059965;28;20090;-85
2022/07/03 01:37:40;;;;;;;2.50;1.60;;;17.10;99.90;;;;;;5061210;28;20491;-85
2022/07/03 01:40:07;;;;;;;4.55;2.00;;;17.10;99.90;;;;;;5062435;28;20059;-85
2022/07/03 01:42:37;;;;;;;3.78;2.00;;;17.10;99.90;;;;;;5061291;28;20059;-86
2022/07/03 01:45:05;;;;;;;4.57;1.73;;;17.10;99.90;;;;;;5067132;28;20040;-84
2022/07/03 01:47:34;;;;;;;4.50;2.17;;;17.10;99.90;;;;;;5067863;28;20040;-84
2022/07/03 01:50:02;;;;;;;3.75;2.00;;;17.10;99.90;;;;;;5067302;28;20048;-85
2022/07/03 01:52:31;;;;;;;3.40;2.10;;;16.80;99.90;;;;;;5062452;28;20036;-84
2022/07/03 01:55:00;;;;;;;3.13;2.05;;;17.10;99.90;;;;;;5065167;28;20048;-85
2022/07/03 01:57:40;;;;;;;3.40;1.70;;;17.10;99.90;;;;;;5071978;28;20108;-85
2022/07/03 02:00:09;;;;;;;4.00;1.75;;;17.10;99.90;;;;;;5064852;28;20048;-85
2022/07/03 02:02:43;;;;;;;3.53;1.58;;;17.30;99.90;;;;;;5072266;28;20041;-85
2022/07/03 02:05:22;;;;;;;4.93;1.88;;;17.10;99.90;;;;;;5071842;28;20040;-85
2022/07/03 02:08:06;;;;;;;3.65;1.50;;;17.20;99.90;;;;;;5065915;28;20080;-85
2022/07/03 02:10:38;;;;;;;5.78;1.70;;;17.70;99.90;;;;;;5066793;28;20048;-84
2022/07/03 02:13:14;;;;;;;3.17;1.75;;;17.20;99.90;;;;;;5063019;28;20072;-86
2022/07/03 02:15:44;;;;;;;2.55;1.60;;;17.20;99.90;;;;;;5069106;28;20202;-87
2022/07/03 02:18:20;;;;;;;3.00;1.70;;;17.20;99.90;;;;;;5085645;28;20036;-86
2022/07/03 02:20:55;;;;;;;2.58;1.25;;;17.20;99.90;;;;;;5071905;28;20048;-85
2022/07/03 02:23:27;;;;;;;1.20;0.95;;;17.30;99.90;;;;;;5064881;28;20059;-84
2022/07/03 02:26:00;;;;;;;1.00;0.80;;;17.30;99.90;;;;;;5064570;28;20109;-86
2022/07/03 02:28:44;;;;;;;1.52;0.80;;;17.30;99.90;;;;;;5063202;28;20083;-85
2022/07/03 02:31:16;;;;;;;2.80;0.70;;;17.50;99.90;;;;;;5064544;28;20252;-85
2022/07/03 02:33:44;;;;;;;3.65;0.80;;;17.60;99.90;;;;;;5069018;28;20082;-85
2022/07/03 02:36:13;;;;;;;1.60;0.80;;;17.70;99.90;;;;;;5064444;28;20213;-85
2022/07/03 02:38:45;;;;;;;1.63;0.70;;;17.70;99.90;;;;;;5063235;28;20049;-85
2022/07/03 02:41:19;;;;;;;1.38;0.80;;;17.80;99.90;;;;;;5065746;28;20173;-85
2022/07/03 02:44:04;;;;;;;2.42;0.80;;;17.90;99.90;;;;;;5068580;28;20042;-85
2022/07/03 02:46:49;;;;;;;1.85;0.80;;;17.90;99.90;;;;;;5081393;28;20398;-85
2022/07/03 02:49:43;;;;;;;2.87;0.70;;;18.00;99.90;;;;;;5081061;28;20490;-85
2022/07/03 02:52:43;;;;;;;1.15;0.70;;;18.00;99.90;;;;;;5068326;28;20433;-86
2022/07/03 02:55:38;;;;;;;1.27;0.63;;;18.00;99.90;;;;;;5070714;28;20044;-86
2022/07/03 02:58:18;;;;;;;2.00;0.70;;;18.00;99.90;;;;;;5070130;28;20503;-85
2022/07/03 03:01:13;;;;;;;1.52;0.70;;;18.00;99.90;;;;;;5069649;28;20080;-85
2022/07/03 03:03:45;;;;;;;1.85;0.70;;;18.00;99.90;;;;;;5049688;28;20056;-85
2022/07/03 03:06:17;;;;;;;1.55;0.60;;;18.00;99.90;;;;;;5063062;28;20130;-85
2022/07/03 03:08:49;;;;;;;2.75;0.70;;;18.00;99.90;;;;;;5066148;28;20193;-84
2022/07/03 03:11:32;;;;;;;1.35;0.70;;;18.00;99.90;;;;;;5078287;28;20371;-85
2022/07/03 03:13:59;;;;;;;2.10;0.80;;;18.00;99.90;;;;;;5061445;28;20526;-85
2022/07/03 03:16:26;;;;;;;1.75;0.80;;;18.00;99.90;;;;;;5047939;28;20040;-85
2022/07/03 03:18:55;;;;;;;5.00;1.10;;;18.00;99.90;;;;;;5081650;28;20082;-86
2022/07/03 03:21:28;;;;;;;1.48;0.80;;;18.20;99.90;;;;;;5070197;28;20056;-86
2022/07/03 03:23:54;;;;;;;3.08;0.90;;;18.50;99.90;;;;;;5082548;28;20052;-85
2022/07/03 03:26:31;;;;;;;2.20;0.70;;;17.90;99.90;;;;;;5062403;28;20066;-86
2022/07/03 03:28:59;;;;;;;2.78;1.27;;;17.90;99.90;;;;;;5064138;28;20044;-85
2022/07/03 03:31:27;;;;;;;1.13;0.70;;;17.90;99.90;;;;;;5066034;28;20058;-84
2022/07/03 03:33:55;;;;;;;1.33;0.73;;;17.90;99.90;;;;;;5062044;28;20051;-86
2022/07/03 03:36:21;;;;;;;1.42;0.73;;;17.90;99.90;;;;;;5062109;28;20040;-85
2022/07/03 03:38:49;;;;;;;2.80;0.80;;;17.80;99.90;;;;;;5063352;28;20471;-85
2022/07/03 03:41:18;;;;;;;1.27;0.70;;;17.80;99.90;;;;;;5067961;28;20484;-85
2022/07/03 03:43:45;;;;;;;1.45;0.90;;;17.80;99.90;;;;;;5081598;28;20047;-85
2022/07/03 03:46:11;;;;;;;2.83;0.70;;;17.80;99.90;;;;;;5063029;28;20126;-85
2022/07/03 03:48:37;;;;;;;1.73;0.70;;;17.80;99.90;;;;;;5063326;28;20159;-84
2022/07/03 03:51:07;;;;;;;2.83;0.90;;;17.80;99.90;;;;;;5064133;28;20471;-85
2022/07/03 03:53:33;;;;;;;1.63;0.65;;;17.80;99.90;;;;;;5078251;28;20511;-85
2022/07/03 03:56:09;;;;;;;1.83;0.90;;;17.80;99.90;;;;;;5048228;28;20044;-84
2022/07/03 03:58:36;;;;;;;2.53;0.70;;;17.80;99.90;;;;;;5071937;28;20123;-85
2022/07/03 04:01:04;;;;;;;1.48;0.70;;;17.80;99.90;;;;;;5066992;28;20051;-86
2022/07/03 04:03:30;;;;;;;2.35;1.00;;;17.80;99.90;;;;;;5063302;28;20068;-85
2022/07/03 04:05:57;;;;;;;1.33;0.70;;;17.70;99.90;;;;;;5062260;28;20050;-85
2022/07/03 04:08:25;;;;;;;1.58;0.80;;;17.80;99.90;;;;;;5061962;28;20113;-85
2022/07/03 04:10:51;;;;;;;1.98;0.60;;;17.80;99.90;;;;;;5063705;28;20071;-86
2022/07/03 04:13:20;;;;;;;2.83;0.93;;;17.90;99.90;;;;;;5062375;28;20072;-85
2022/07/03 04:15:48;;;;;;;2.80;0.70;;;17.90;99.90;;;;;;5069648;28;20037;-85
2022/07/03 04:18:14;;;;;;;1.88;0.80;;;17.90;99.90;;;;;;5078035;28;20036;-85
2022/07/03 04:20:40;;;;;;;1.92;0.73;;;17.90;99.90;;;;;;5063085;28;20071;-85
2022/07/03 04:23:09;;;;;;;4.05;1.00;;;17.90;99.90;;;;;;5069796;28;20105;-85
2022/07/03 04:25:35;;;;;;;3.15;0.77;;;17.90;99.90;;;;;;5053025;28;20125;-84
2022/07/03 04:28:01;;;;;;;1.98;0.70;;;17.90;99.90;;;;;;5062480;28;20099;-85
2022/07/03 04:30:27;;;;;;;2.35;0.80;;;17.90;99.90;;;;;;5077906;28;20044;-84
2022/07/03 04:32:55;;;;;;;1.63;0.70;;;17.90;99.90;;;;;;5062070;28;20048;-85
2022/07/03 04:35:24;;;;;;;1.95;0.90;;;18.00;99.90;;;;;;5059928;28;20340;-85
2022/07/03 04:37:55;;;;;;;2.63;0.98;;;18.00;99.90;;;;;;5061156;28;20048;-85
2022/07/03 04:40:23;;;;;;;2.15;0.93;;;18.00;99.90;;;;;;5053474;28;20056;-85
2022/07/03 04:42:49;;;;;;;4.22;0.70;;;18.00;99.90;;;;;;5063873;28;20381;-86
2022/07/03 04:45:15;;;;;;;2.40;0.90;;;18.00;99.90;;;;;;5077527;28;20044;-86
2022/07/03 04:47:41;;;;;;;2.95;0.77;;;18.10;99.90;;;;;;5063363;28;20086;-85
2022/07/03 04:50:07;;;;;;;2.05;0.75;;;18.10;99.90;;;;;;5067012;28;20040;-85
2022/07/03 04:52:33;;;;;;;2.65;0.80;;;18.20;99.90;;;;;;5060643;28;20048;-85
2022/07/03 04:54:59;;;;;;;4.13;0.90;;;18.20;99.90;;;;;;5045685;28;20068;-84
2022/07/03 04:57:25;;;;;;;4.25;1.02;;;18.20;99.90;;;;;;5062223;28;20134;-85
2022/07/03 04:59:53;;;;;;;3.00;1.00;;;18.20;99.90;;;;;;5061477;28;20048;-85
2022/07/03 05:02:19;;;;;;;1.33;0.73;;;18.20;99.90;;;;;;5061768;28;20653;-84
2022/07/03 05:04:45;;;;;;;1.50;0.88;;;18.20;99.90;;;;;;5046246;28;20054;-86
2022/07/03 05:07:19;;;;;;;1.65;0.90;;;18.20;99.90;;;;;;5060088;28;20138;-86
2022/07/03 05:09:48;;;;;;;3.22;0.77;;;18.20;99.90;;;;;;5077395;28;20131;-85
2022/07/03 05:12:14;;;;;;;3.05;1.10;;;18.20;99.90;;;;;;5057786;28;20046;-84
2022/07/03 05:14:42;;;;;;;1.80;0.70;;;18.10;99.90;;;;;;5062753;28;20139;-84
2022/07/03 05:17:08;;;;;;;6.00;1.20;;;18.10;99.90;;;;;;5064518;28;20047;-85
2022/07/03 05:19:33;;;;;;;3.35;1.02;;;18.10;99.90;;;;;;5063453;28;20407;-85
2022/07/03 05:21:59;;;;;;;4.10;1.00;;;18.10;99.90;;;;;;5063201;28;20377;-85
2022/07/03 05:24:30;;;;;;;3.28;0.98;;;17.60;99.90;;;;;;5067784;28;20057;-84
2022/07/03 05:26:56;;;;;;;1.83;0.90;;;18.10;99.90;;;;;;5078461;28;20033;-84
2022/07/03 05:29:21;;;;;;;2.65;0.70;;;18.20;99.90;;;;;;5076596;28;20142;-84
2022/07/03 05:31:47;;;;;;;3.30;1.00;;;18.20;99.90;;;;;;5062624;28;20048;-84
2022/07/03 05:34:13;;;;;;;1.67;0.82;;;18.20;99.90;;;;;;5062876;28;20051;-84
2022/07/03 05:36:39;;;;;;;3.30;0.98;;;18.20;99.90;;;;;;5062822;28;20127;-84
2022/07/03 05:41:51;;;;;;;4.07;0.90;;;18.40;99.90;;;;;;5078127;28;20411;-83
2022/07/03 05:44:17;;;;;;;3.60;1.00;;;18.40;99.90;;;;;;5051120;28;20124;-83
2022/07/03 05:46:42;;;;;;;3.40;0.80;;;17.90;99.90;;;;;;5059683;28;20338;-85
2022/07/03 05:49:08;;;;;;;2.47;0.80;;;18.60;99.90;;;;;;5040485;28;20502;-83
2022/07/03 05:51:34;;;;;;;3.38;0.90;;;18.60;99.90;;;;;;5061100;28;20043;-83
2022/07/03 05:54:00;;;;;;;4.15;1.05;;;18.70;99.90;;;;;;5062007;28;20047;-83
2022/07/03 05:56:26;;;;;;;3.00;1.13;;;18.70;99.90;;;;;;5060327;28;20075;-83
2022/07/03 05:58:51;;;;;;;3.80;1.00;;;18.80;99.90;;;;;;5045009;28;20395;-83
2022/07/03 06:01:17;;;;;;;5.18;1.13;;;18.90;99.90;;;;;;5075680;28;20039;-83
2022/07/03 06:03:43;;;;;;;2.90;1.10;;;19.00;99.90;;;;;;5043869;28;20063;-83
2022/07/03 06:06:09;;;;;;;2.00;1.00;;;19.00;99.90;;;;;;5066520;28;20090;-83
2022/07/03 06:08:35;;;;;;;3.97;1.05;;;19.20;99.90;;;;;;5051485;28;20053;-82
2022/07/03 06:11:01;;;;;;;3.35;0.90;;;19.30;99.90;;;;;;5068059;28;20410;-82
2022/07/03 06:13:27;;;;;;;3.97;1.00;;;19.30;99.90;;;;;;5044105;28;20486;-82
2022/07/03 06:15:53;;;;;;;3.25;1.02;;;19.40;99.90;;;;;;5060135;28;20040;-83
2022/07/03 06:18:18;;;;;;;2.53;0.88;;;19.40;99.90;;;;;;5076476;28;20144;-82
2022/07/03 06:20:44;;;;;;;2.50;1.00;;;19.40;99.90;;;;;;5060673;28;20159;-83
2022/07/03 06:23:10;;;;;;;4.32;1.00;;;19.40;99.90;;;;;;5061600;28;20127;-85
2022/07/03 06:25:36;;;;;;;4.18;1.17;;;19.40;99.90;;;;;;5060022;28;20048;-84
2022/07/03 06:28:01;;;;;;;4.22;1.08;;;19.40;99.90;;;;;;5045041;28;20094;-83
2022/07/03 06:30:27;;;;;;;3.05;0.93;;;19.40;99.90;;;;;;5056793;28;20048;-84
2022/07/03 06:32:53;;;;;;;3.97;1.00;;;19.50;99.90;;;;;;5042741;28;20106;-84
2022/07/03 06:35:18;;;;;;;4.30;1.00;;;19.60;99.90;;;;;;5044021;28;20051;-84
2022/07/03 06:37:44;;;;;;;5.80;1.48;;;19.60;99.90;;;;;;5075703;28;20113;-85
2022/07/03 06:40:10;;;;;;;3.83;1.00;;;19.70;99.90;;;;;;5059587;28;20048;-85
2022/07/03 06:42:36;;;;;;;5.05;1.30;;;19.70;99.90;;;;;;5047484;28;20052;-84
2022/07/03 06:45:05;;;;;;;5.70;1.40;;;19.80;99.90;;;;;;5064923;28;20544;-83
2022/07/03 06:47:36;;;;;;;4.47;1.23;;;19.80;99.90;;;;;;5070877;28;20490;-85
2022/07/03 06:50:01;;;;;;;6.60;1.20;;;19.90;99.90;;;;;;5067144;28;20178;-84
2022/07/03 06:52:27;;;;;;;4.10;1.15;;;20.00;99.90;;;;;;5063660;28;21957;-84
2022/07/03 06:54:53;;;;;;;5.00;1.38;;;20.10;99.90;;;;;;5078444;28;20050;-84
2022/07/03 06:57:21;;;;;;;5.38;1.25;;;20.10;99.90;;;;;;5081069;28;20483;-84
2022/07/03 06:59:48;;;;;;;4.35;1.25;;;20.20;99.90;;;;;;5065177;28;20048;-84
2022/07/03 07:02:14;;;;;;;3.08;1.30;;;20.30;99.90;;;;;;5082115;28;20052;-90
2022/07/03 07:04:40;;;;;;;4.45;1.20;;;20.30;99.90;;;;;;5071310;28;20040;-84
2022/07/03 07:07:08;;;;;;;4.80;1.23;;;20.30;99.90;;;;;;5068262;28;20185;-85
2022/07/03 07:09:34;;;;;;;6.07;1.50;;;20.20;99.90;;;;;;5084224;28;20044;-85
2022/07/03 07:12:00;;;;;;;4.68;1.42;;;20.50;99.90;;;;;;5067131;28;20914;-85
2022/07/03 07:14:26;;;;;;;4.07;1.10;;;20.50;99.90;;;;;;5065477;28;20513;-84
2022/07/03 07:16:52;;;;;;;4.80;1.67;;;20.50;99.90;;;;;;5031802;28;20040;-85
2022/07/03 07:19:18;;;;;;;4.93;1.52;;;20.40;99.90;;;;;;5072456;28;20044;-85
2022/07/03 07:21:43;;;;;;;6.78;1.60;;;20.50;99.90;;;;;;5083100;28;20048;-84
2022/07/03 07:24:09;;;;;;;4.68;1.40;;;20.60;99.90;;;;;;5082983;28;20048;-85
2022/07/03 07:26:38;;;;;;;8.77;2.13;;;20.70;99.90;;;;;;5071899;28;20701;-84
2022/07/03 07:29:04;;;;;;;5.50;1.52;;;20.80;99.90;;;;;;5071703;28;20098;-84
2022/07/03 07:31:30;;;;;;;4.43;1.40;;;20.70;99.90;;;;;;5081014;28;20055;-84
2022/07/03 07:33:56;;;;;;;4.60;1.70;;;20.70;99.90;;;;;;5050688;28;20460;-84
2022/07/03 07:36:22;;;;;;;5.10;1.27;;;20.80;99.90;;;;;;5066756;28;20376;-84
2022/07/03 07:38:47;;;;;;;6.65;1.73;;;21.00;99.90;;;;;;5083455;28;20039;-84
2022/07/03 07:41:13;;;;;;;7.35;1.60;;;21.20;99.90;;;;;;5064785;28;20051;-84
2022/07/03 07:43:39;;;;;;;4.38;1.40;;;21.20;99.90;;;;;;5057709;28;20394;-81
2022/07/03 07:46:05;;;;;;;6.45;1.52;;;21.30;99.90;;;;;;5068903;28;20047;-82
2022/07/03 07:48:31;;;;;;;5.70;1.50;;;21.30;99.90;;;;;;5067077;28;20075;-83
2022/07/03 07:50:57;;;;;;;6.93;1.38;;;21.30;99.90;;;;;;5068160;28;20126;-83
2022/07/03 07:53:22;;;;;;;6.57;1.50;;;21.60;99.90;;;;;;5065795;28;20186;-84
2022/07/03 07:55:48;;;;;;;5.20;1.30;;;21.70;99.90;;;;;;5069228;28;20040;-84
2022/07/03 07:58:14;;;;;;;3.60;1.65;;;21.70;99.90;;;;;;5037605;28;20054;-83
2022/07/03 08:05:35;;;;;;;6.43;1.65;;;21.80;99.90;;;;;;5066142;28;20095;-83
2022/07/03 08:06:11;;;;;;;5.78;1.48;;;21.60;99.90;;;;;;5067656;28;20055;-84
2022/07/03 08:08:36;;;;;;;5.75;1.40;;;22.10;99.90;;;;;;5073459;28;20438;-84
2022/07/03 08:11:02;;;;;;;4.97;1.20;;;22.00;99.90;;;;;;5053221;28;20096;-83
2022/07/03 08:13:28;;;;;;;4.90;1.38;;;22.10;99.90;;;;;;5065191;28;20047;-83
2022/07/03 08:15:54;;;;;;;5.22;1.98;;;22.30;99.90;;;;;;5085430;28;20036;-82
2022/07/03 08:18:19;;;;;;;5.53;1.50;;;22.50;99.90;;;;;;5051322;28;20039;-84
2022/07/03 08:20:45;;;;;;;6.15;1.30;;;22.80;99.90;;;;;;5066455;28;20044;-83
2022/07/03 08:23:11;;;;;;;3.95;1.20;;;22.90;99.90;;;;;;5066451;28;20395;-83
2022/07/03 08:25:37;;;;;;;5.80;1.40;;;22.70;99.90;;;;;;5075251;28;20062;-83
2022/07/03 08:28:03;;;;;;;3.75;1.10;;;22.70;99.90;;;;;;5058303;28;20059;-83
2022/07/03 08:30:28;;;;;;;5.15;1.48;;;22.70;99.90;;;;;;5067396;28;20139;-83
2022/07/03 08:32:57;;;;;;;5.07;1.80;;;22.90;99.90;;;;;;5070684;28;20058;-83
2022/07/03 08:35:23;;;;;;;7.20;1.38;;;23.10;99.90;;;;;;5068582;28;20112;-83
2022/07/03 08:37:49;;;;;;;6.25;1.30;;;22.90;99.90;;;;;;5068120;28;20483;-84
2022/07/03 08:40:17;;;;;;;5.10;1.35;;;23.10;99.90;;;;;;5068437;28;20102;-83
2022/07/03 08:42:46;;;;;;;5.57;1.40;;;23.20;99.90;;;;;;5070870;28;20058;-83
2022/07/03 08:45:17;;;;;;;4.43;1.33;;;23.20;99.90;;;;;;5074712;28;20054;-83
2022/07/03 08:47:44;;;;;;;4.65;1.42;;;23.10;99.90;;;;;;5066839;28;20054;-83
2022/07/03 08:50:14;;;;;;;6.07;1.27;;;23.10;99.90;;;;;;5058710;28;20130;-84
2022/07/03 08:52:41;;;;;;;5.22;1.20;;;23.30;99.90;;;;;;5067313;28;20109;-83
2022/07/03 08:55:09;;;;;;;4.55;1.52;;;23.40;99.90;;;;;;5053987;28;20047;-83
2022/07/03 08:57:37;;;;;;;4.70;1.25;;;23.40;99.90;;;;;;5072011;28;20051;-82
2022/07/03 09:00:05;;;;;;;3.65;1.15;;;23.40;99.90;;;;;;5087209;28;20548;-82
2022/07/03 09:02:32;;;;;;;4.47;1.30;;;23.30;99.90;;;;;;5065656;28;20081;-83
2022/07/03 09:04:59;;;;;;;3.63;1.23;;;23.40;99.90;;;;;;5048547;28;20101;-83
2022/07/03 09:07:27;;;;;;;4.60;1.15;;;23.40;99.90;;;;;;5064944;28;20102;-84
2022/07/03 09:09:53;;;;;;;4.15;1.33;;;23.20;99.90;;;;;;5086995;28;20065;-82
2022/07/03 09:12:19;;;;;;;3.95;1.10;;;23.40;99.90;;;;;;5064752;28;20134;-82
2022/07/03 09:14:45;;;;;;;3.38;1.20;;;23.60;99.90;;;;;;5062642;28;20494;-83
2022/07/03 09:17:11;;;;;;;2.78;1.20;;;23.60;99.90;;;;;;5039748;28;20042;-83
2022/07/03 09:19:47;;;;;;;3.25;1.02;;;23.50;99.90;;;;;;5072822;28;20116;-83
2022/07/03 09:22:28;;;;;;;;;;;23.70;99.90;;;;;;5066134;28;20056;-83
2022/07/03 09:25:15;;;;;;;4.13;0.85;;;23.70;99.90;;;;;;5071565;28;19992;-84
2022/07/03 09:27:51;;;;;;;3.33;1.13;;;23.90;99.90;;;;;;5047497;28;20437;-84
2022/07/03 09:30:17;;;;;;;2.67;0.90;;;24.30;99.90;;;;;;5065210;28;20056;-83
2022/07/03 09:32:45;;;;;;;1.95;0.70;;;24.50;99.90;;;;;;5064197;28;20128;-84
2022/07/03 09:35:20;;;;;;;4.57;0.85;;;24.40;99.90;;;;;;5063802;28;20075;-83
2022/07/03 09:37:58;;;;;;;2.57;1.10;;;24.60;99.90;;;;;;5063037;28;20040;-83
2022/07/03 09:40:26;;;;;;;2.25;0.93;;;24.30;99.90;;;;;;5081002;28;20571;-84
2022/07/03 09:43:03;;;;;;;3.30;0.90;;;24.10;99.90;;;;;;5064253;28;20048;-81
2022/07/03 09:45:48;;;;;;;2.47;0.80;;;24.20;99.90;;;;;;5063736;28;20043;-82
2022/07/03 09:48:34;;;;;;;1.85;0.80;;;24.30;99.90;;;;;;5064908;28;20090;-81
2022/07/03 09:51:12;;;;;;;2.92;1.00;;;24.40;99.90;;;;;;5063551;28;20101;-82
2022/07/03 09:53:51;;;;;;;2.95;1.20;;;24.40;99.90;;;;;;5080118;28;20051;-81
2022/07/03 09:56:22;;;;;;;2.80;1.08;;;24.30;99.90;;;;;;5064861;28;20051;-82
2022/07/03 09:59:07;;;;;;;2.72;0.75;;;24.20;99.90;;;;;;5056059;28;20539;-81
2022/07/03 10:01:34;;;;;;;3.20;1.03;;;24.30;99.90;;;;;;5063056;28;20058;-82
2022/07/03 10:04:13;;;;;;;4.15;1.15;;;24.60;99.90;;;;;;5071902;28;20301;-83
2022/07/03 10:06:51;;;;;;;3.22;1.15;;;25.00;99.90;;;;;;5063768;28;20091;-82
2022/07/03 10:09:19;;;;;;;2.58;0.85;;;24.70;99.90;;;;;;5062777;28;20048;-82
2022/07/03 10:11:45;;;;;;;3.40;1.00;;;24.60;99.90;;;;;;5079473;28;20410;-82
2022/07/03 10:14:14;;;;;;;2.92;1.05;;;24.50;99.90;;;;;;5063397;28;20048;-82
2022/07/03 10:16:41;;;;;;;3.17;0.95;;;24.30;99.90;;;;;;5065384;28;20075;-83
2022/07/03 10:19:20;;;;;;;2.80;0.90;;;24.20;99.90;;;;;;5076305;28;20043;-82
2022/07/03 10:21:57;;;;;;;3.17;0.95;;;24.20;99.90;;;;;;5067253;28;20112;-83
2022/07/03 10:24:29;;;;;;;2.55;1.00;;;24.10;99.90;;;;;;5084611;28;20051;-82
2022/07/03 10:26:56;;;;;;;3.33;0.80;;;24.10;99.90;;;;;;5067883;28;20051;-82
2022/07/03 10:29:24;;;;;;;2.72;0.90;;;24.00;99.90;;;;;;5083974;28;20402;-82
2022/07/03 10:31:50;;;;;;;2.75;0.90;;;24.00;99.90;;;;;;5066874;28;20051;-83
2022/07/03 10:34:21;;;;;;;3.45;1.00;;;23.80;99.90;;;;;;5068258;28;20044;-84
2022/07/03 10:37:07;;;;;;;1.52;0.80;;;23.90;99.90;;;;;;5083426;28;20036;-84
2022/07/03 10:46:09;;;;;;;3.50;0.80;;;24.00;99.90;;;;;;5083542;28;20097;-83
2022/07/03 10:49:10;;;;;;;4.03;0.95;;;23.90;99.90;;;;;;5084541;28;20044;-83
2022/07/03 10:51:45;;;;;;;3.08;0.80;;;23.60;99.90;;;;;;5016596;28;20408;-84
2022/07/03 10:54:18;;;;;;;2.58;0.82;;;23.30;99.90;;;;;;5066955;28;20522;-83
2022/07/03 10:57:00;;;;;;;2.83;1.10;;;23.20;99.90;;;;;;5076137;28;20048;-83
2022/07/03 10:59:31;;;;;;;2.63;0.90;;;23.10;99.90;;;;;;5086881;28;20055;-83
2022/07/03 11:02:33;;;;;;;3.45;0.80;;;23.10;99.90;;;;;;5068979;28;20047;-83
2022/07/03 11:04:59;;;;;;;3.15;1.00;;;23.00;99.90;;;;;;5066006;28;20116;-82
2022/07/03 11:07:26;;;;;;;1.67;0.68;;;22.90;99.90;;;;;;5066888;28;20502;-83
2022/07/03 11:10:12;;;;;;;1.50;0.80;;;22.90;99.90;;;;;;5067292;28;20053;-83
2022/07/03 11:13:11;;;;;;;1.42;0.60;;;23.00;99.90;;;;;;5065864;28;20045;-83
2022/07/03 11:15:41;;;;;;;1.63;0.63;;;22.90;99.90;;;;;;5076685;28;20036;-83
2022/07/03 11:18:19;;;;;;;3.53;0.90;;;22.80;99.90;;;;;;5104943;28;20036;-83
2022/07/03 11:20:44;;;;;;;3.25;0.90;;;22.50;99.90;;;;;;5073969;28;20457;-83
2022/07/03 11:23:13;;;;;;;1.73;0.85;;;22.50;99.90;;;;;;5071616;28;20152;-83
2022/07/03 11:25:43;;;;;;;2.00;0.85;;;22.80;99.90;;;;;;5072541;28;20051;-83
2022/07/03 11:28:47;;;;;;;2.05;0.90;;;23.30;99.90;;;;;;5052637;28;20051;-83
2022/07/03 11:31:18;;;;;;;1.83;0.70;;;23.60;99.90;;;;;;5088310;28;20498;-83
2022/07/03 11:33:45;;;;;;;2.10;0.80;;;24.00;99.90;;;;;;5075155;28;20501;-83
2022/07/03 11:36:25;;;;;;;2.53;0.80;;;24.50;99.90;;;;;;5084074;28;20043;-83
2022/07/03 11:39:03;;;;;;;2.67;0.95;;;24.90;99.90;;;;;;5084983;28;20086;-83
2022/07/03 11:41:34;;;;;;;2.67;1.15;;;25.20;99.90;;;;;;5081054;28;20089;-83
2022/07/03 11:44:05;;;;;;;1.83;0.73;;;25.10;99.90;;;;;;5065988;28;20098;-82
2022/07/03 11:46:34;;;;;;;2.00;1.10;;;25.10;99.90;;;;;;5073898;28;20043;-83
2022/07/03 11:49:10;;;;;;;2.67;0.93;;;25.30;99.90;;;;;;5072631;28;20048;-83
2022/07/03 11:51:37;;;;;;;4.53;1.15;;;25.40;99.90;;;;;;5077620;28;20496;-85
2022/07/03 11:54:03;;;;;;;2.67;1.00;;;25.70;99.90;;;;;;5070040;28;20113;-83
2022/07/03 11:56:30;;;;;;;2.50;0.80;;;26.10;99.90;;;;;;5052832;28;20135;-83
2022/07/03 11:58:58;;;;;;;2.35;0.88;;;26.40;99.90;;;;;;5070976;28;20144;-83
2022/07/03 12:01:28;;;;;;;1.88;0.80;;;26.10;99.90;;;;;;5034663;28;20043;-83
2022/07/03 12:04:03;;;;;;;2.13;0.80;;;26.20;99.90;;;;;;5069074;28;20051;-83
2022/07/03 12:06:41;;;;;;;4.05;1.23;;;26.30;99.90;;;;;;5090327;28;20066;-83
2022/07/03 12:09:19;;;;;;;1.75;1.05;;;26.30;99.90;;;;;;5069718;28;20055;-83
2022/07/03 12:12:01;;;;;;;2.42;0.80;;;26.20;99.90;;;;;;5066125;28;20058;-83
2022/07/03 12:14:43;;;;;;;2.13;0.88;;;26.20;99.90;;;;;;5082953;28;20494;-83
2022/07/03 12:17:28;;;;;;;2.28;0.70;;;26.00;99.90;;;;;;5085201;28;20035;-82
2022/07/03 12:20:00;;;;;;;2.30;0.70;;;25.80;99.90;;;;;;5057712;28;20070;-83
2022/07/03 12:22:41;;;;;;;4.93;0.90;;;25.60;99.90;;;;;;5068712;28;20055;-83
2022/07/03 12:25:10;;;;;;;1.80;0.70;;;25.70;99.90;;;;;;5082837;28;20047;-83
2022/07/03 12:27:41;;;;;;;2.53;1.20;;;25.40;99.90;;;;;;5074043;28;20126;-83
2022/07/03 12:30:09;;;;;;;2.50;1.42;;;25.10;99.90;;;;;;5071647;28;20044;-83
2022/07/03 12:32:38;;;;;;;2.78;1.00;;;25.20;99.90;;;;;;5065943;28;20067;-83
2022/07/03 12:35:05;;;;;;;2.70;1.42;;;25.30;99.90;;;;;;5081938;28;20040;-83
2022/07/03 12:37:40;;;;;;;4.50;1.52;;;25.50;99.90;;;;;;5049332;28;20062;-84
2022/07/03 12:40:13;;;;;;;1.00;0.50;;;25.60;99.90;;;;;;5072870;28;20048;-84
2022/07/03 12:42:53;;;;;;;3.08;0.77;;;25.60;99.90;;;;;;5081657;28;20097;-85
2022/07/03 12:45:29;;;;;;;1.60;0.70;;;25.50;99.90;;;;;;5052753;28;20070;-83
2022/07/03 12:48:00;;;;;;;3.13;0.80;;;25.40;99.90;;;;;;5069777;28;20054;-82
2022/07/03 12:50:42;;;;;;;1.85;0.68;;;25.30;99.90;;;;;;5084741;28;20066;-84
2022/07/03 12:53:08;;;;;;;3.25;0.80;;;25.00;99.90;;;;;;5067077;28;20055;-83
2022/07/03 12:55:34;;;;;;;1.83;0.80;;;24.80;99.90;;;;;;5049787;28;20047;-83
2022/07/03 13:01:06;;;;;;;1.70;0.80;;;24.10;99.90;;;;;;5091514;28;20199;-82
2022/07/03 13:03:37;;;;;;;2.05;0.80;;;23.70;99.90;;;;;;5075959;28;20134;-83
2022/07/03 13:06:12;;;;;;;1.92;1.00;;;23.50;99.90;;;;;;5055079;28;20085;-83
2022/07/03 13:08:38;;;;;;;;;;;23.40;99.90;;;;;;5055571;28;20112;-83
2022/07/03 13:11:04;;;;;;;;;;;23.10;99.90;;;;;;5050674;28;19941;-83
2022/07/03 13:13:47;;;;;;;2.00;0.77;;;23.00;99.90;;;;;;5052569;28;20127;-83
2022/07/03 13:16:25;;;;;;;1.50;0.70;;;22.90;99.90;;;;;;5072543;28;20051;-83
2022/07/03 13:19:02;;;;;;;1.85;0.65;;;22.70;99.90;;;;;;5064216;28;20039;-83
2022/07/03 13:21:28;;;;;;;2.22;0.85;;;22.60;99.90;;;;;;5064257;28;20130;-83
2022/07/03 13:23:55;;;;;;;1.60;0.68;;;22.40;99.90;;;;;;5057867;28;20549;-82